SETU/TUA METAR and TAF weather

Enter ICAO airport designator
Station Type Date Time Source
SETU METAR 2019/08/21 21:00 UTC NOAA

SETU 212100Z 10008KT 9999 VCSH BKN020 11/10 Q1032


Station Type Date Time Source
SETU Decoded METAR 2019/08/21 21:00 UTC NOAA

Station name not available
Aug 21, 2019 - 05:00 PM EDT / 2019.08.21 2100 UTC
Wind: from the E (100 degrees) at 9 MPH (8 KT):0
Visibility: greater than 7 mile(s):0
Sky conditions: mostly cloudy
Weather: showers in the vicinity
Temperature: 51 F (11 C)
Dew Point: 50 F (10 C)
Relative Humidity: 93%
Pressure (altimeter): 30.47 in. Hg (1032 hPa)
ob: SETU 212100Z 10008KT 9999 VCSH BKN020 11/10 Q1032
cycle: 21

Station Type Date Time Source
SETU TAF UTC NOAA

Error!

Example: see airport list